Time;durP1;ratioP1;P1;durP2;ratioP2;P2;SDS_P1;SDS_P2;PMS_P1;PMS_P2;Temp;Humidity;BMP_temperature;BMP_pressure;BME280_temperature;BME280_humidity;BME280_pressure;Samples;Min_cycle;Max_cycle;Signal;HPM_P1;HPM_P2
2022/10/15 00:00:05;;;;;;;40.22;23.15;;;;;;;11.40;100.00;98786.13;4988682;28;20735;-63
2022/10/15 00:03:11;;;;;;;43.55;24.67;;;;;;;11.40;100.00;98780.03;4988003;28;20553;-62
2022/10/15 00:05:55;;;;;;;42.17;23.42;;;;;;;11.32;100.00;98773.56;4988852;28;20154;-61
2022/10/15 00:08:40;;;;;;;38.75;23.85;;;;;;;11.27;100.00;98780.94;4990837;28;20042;-63
2022/10/15 00:11:27;;;;;;;42.08;23.90;;;;;;;11.23;100.00;98789.13;4990521;28;20034;-62
2022/10/15 00:14:11;;;;;;;38.42;21.75;;;;;;;11.19;100.00;98789.34;4994343;28;20497;-61
2022/10/15 00:16:56;;;;;;;35.40;20.05;;;;;;;11.16;100.00;98784.28;4993533;28;20501;-61
2022/10/15 00:19:41;;;;;;;37.63;22.05;;;;;;;11.21;100.00;98776.13;4992503;28;20508;-61
2022/10/15 00:22:25;;;;;;;36.28;21.60;;;;;;;11.14;100.00;98778.34;4993609;28;20042;-62
2022/10/15 00:25:10;;;;;;;42.10;23.67;;;;;;;10.99;100.00;98774.16;4995155;28;20035;-61
2022/10/15 00:27:54;;;;;;;38.80;23.05;;;;;;;11.00;100.00;98758.31;4993485;28;20073;-62
2022/10/15 00:30:39;;;;;;;38.75;21.98;;;;;;;10.99;100.00;98750.56;4968550;28;20101;-61
2022/10/15 00:33:23;;;;;;;39.20;22.48;;;;;;;10.92;100.00;98744.91;4987849;28;20477;-61
2022/10/15 00:36:14;;;;;;;37.47;20.77;;;;;;;10.89;100.00;98753.84;4987953;28;20038;-61
2022/10/15 00:38:59;;;;;;;36.83;21.48;;;;;;;10.95;100.00;98753.41;4989731;28;20113;-62
2022/10/15 00:41:44;;;;;;;41.35;21.80;;;;;;;10.95;100.00;98750.78;4992955;28;20038;-61
2022/10/15 00:44:29;;;;;;;38.58;21.83;;;;;;;10.83;100.00;98743.81;4989960;28;20185;-61
2022/10/15 00:47:19;;;;;;;41.33;22.35;;;;;;;10.76;100.00;98737.28;4988935;28;20042;-62
2022/10/15 00:50:14;;;;;;;43.50;23.97;;;;;;;10.71;100.00;98735.00;4972866;28;20136;-62
2022/10/15 00:53:04;;;;;;;41.42;23.75;;;;;;;10.71;100.00;98729.75;4998072;28;20149;-61
2022/10/15 00:55:50;;;;;;;43.30;23.85;;;;;;;10.71;100.00;98727.16;5001501;28;20061;-61
2022/10/15 00:58:35;;;;;;;37.60;21.85;;;;;;;10.69;100.00;98727.25;4990188;28;20069;-61
2022/10/15 01:01:20;;;;;;;39.70;22.48;;;;;;;10.71;100.00;98720.13;4992290;28;20058;-62
2022/10/15 01:04:06;;;;;;;38.00;22.65;;;;;;;10.75;100.00;98723.38;4987254;28;20132;-61
2022/10/15 01:06:50;;;;;;;36.28;20.77;;;;;;;10.77;100.00;98720.66;5001672;28;20043;-62
2022/10/15 01:09:35;;;;;;;37.97;22.17;;;;;;;10.82;100.00;98721.16;4991534;28;20037;-61
2022/10/15 01:12:26;;;;;;;35.47;21.85;;;;;;;10.73;100.00;98714.78;5008190;28;20491;-61
2022/10/15 01:15:19;;;;;;;34.92;20.80;;;;;;;10.75;100.00;98714.66;4999617;28;20043;-63
2022/10/15 01:18:13;;;;;;;40.17;23.00;;;;;;;10.69;100.00;98711.53;4969087;28;20117;-62
2022/10/15 01:21:13;;;;;;;33.92;19.70;;;;;;;10.72;100.00;98706.06;4966719;28;20612;-61
2022/10/15 01:24:21;;;;;;;34.17;20.55;;;;;;;10.72;100.00;98706.06;4967155;28;20043;-61
2022/10/15 01:27:16;;;;;;;35.22;20.73;;;;;;;10.59;100.00;98707.91;4986092;28;20054;-60
2022/10/15 01:30:21;;;;;;;36.67;21.10;;;;;;;10.63;100.00;98709.34;4985464;28;20526;-60
2022/10/15 01:33:11;;;;;;;39.08;20.33;;;;;;;10.65;100.00;98691.75;4981452;28;20083;-61
2022/10/15 01:36:07;;;;;;;41.75;22.10;;;;;;;10.70;100.00;98701.91;4978264;28;20105;-60
2022/10/15 01:39:04;;;;;;;36.33;20.70;;;;;;;10.67;100.00;98692.47;4986261;28;20479;-62
2022/10/15 01:41:55;;;;;;;40.28;22.58;;;;;;;10.67;100.00;98692.47;4998945;28;20389;-61
2022/10/15 01:44:48;;;;;;;36.83;21.55;;;;;;;10.54;100.00;98692.47;4995610;28;20467;-61
2022/10/15 01:47:55;;;;;;;40.08;23.58;;;;;;;10.53;100.00;98690.81;4970677;28;20414;-61
2022/10/15 01:50:51;;;;;;;46.05;24.52;;;;;;;10.50;100.00;98693.66;4984007;28;20074;-61
2022/10/15 01:53:38;;;;;;;36.45;22.52;;;;;;;10.64;100.00;98692.66;4985139;28;20039;-61
2022/10/15 01:56:26;;;;;;;38.83;21.27;;;;;;;10.66;100.00;98696.03;4996740;28;20038;-61
2022/10/15 01:59:11;;;;;;;38.38;22.63;;;;;;;10.62;100.00;98683.25;4972315;28;20289;-61
2022/10/15 02:01:57;;;;;;;35.33;21.63;;;;;;;10.62;100.00;98684.09;4970098;28;20114;-61
2022/10/15 02:04:42;;;;;;;41.00;22.90;;;;;;;10.64;100.00;98682.19;4978950;28;20039;-61
2022/10/15 02:07:56;;;;;;;35.72;21.90;;;;;;;10.67;100.00;98687.25;4986591;28;20084;-61
2022/10/15 02:10:50;;;;;;;40.58;22.10;;;;;;;10.56;100.00;98684.53;4933200;29;20161;-61
2022/10/15 02:13:43;;;;;;;37.17;21.90;;;;;;;10.55;100.00;98682.84;4909954;29;20071;-61
2022/10/15 02:16:51;;;;;;;37.40;22.42;;;;;;;10.58;100.00;98682.63;4933532;29;20043;-63
2022/10/15 02:19:52;;;;;;;35.30;21.33;;;;;;;10.58;100.00;98680.84;4932454;29;20046;-61
2022/10/15 02:22:45;;;;;;;33.22;20.80;;;;;;;10.52;100.00;98677.81;4946340;28;20588;-61
2022/10/15 02:25:34;;;;;;;36.90;22.10;;;;;;;10.53;100.00;98669.00;4941898;28;20051;-61
2022/10/15 02:28:20;;;;;;;36.22;20.83;;;;;;;10.42;100.00;98670.59;4925419;29;20050;-61
2022/10/15 02:31:08;;;;;;;34.42;19.98;;;;;;;10.41;100.00;98668.06;4924805;29;20146;-62
2022/10/15 02:33:59;;;;;;;37.95;21.50;;;;;;;10.40;100.00;98658.53;4931767;29;20050;-61
2022/10/15 02:36:45;;;;;;;36.57;22.27;;;;;;;10.37;100.00;98656.97;4946692;29;20061;-61
2022/10/15 02:39:32;;;;;;;35.20;20.02;;;;;;;10.40;100.00;98653.28;4946154;28;20491;-61
2022/10/15 02:42:17;;;;;;;35.45;21.42;;;;;;;10.46;100.00;98648.50;4934274;29;20054;-62
2022/10/15 02:45:03;;;;;;;34.40;20.13;;;;;;;10.43;100.00;98656.53;4944989;28;20511;-61
2022/10/15 02:47:47;;;;;;;35.70;21.15;;;;;;;10.43;100.00;98660.97;4962943;28;20117;-62
2022/10/15 02:50:32;;;;;;;38.88;21.88;;;;;;;10.36;100.00;98650.06;4972332;28;20026;-62
2022/10/15 02:53:17;;;;;;;38.30;22.20;;;;;;;10.34;100.00;98644.09;4986037;28;20041;-61
2022/10/15 02:56:01;;;;;;;39.03;22.85;;;;;;;10.29;100.00;98648.81;4988589;28;20078;-61
2022/10/15 02:58:47;;;;;;;35.40;21.98;;;;;;;10.29;100.00;98647.03;4999128;28;20042;-61
2022/10/15 03:01:33;;;;;;;38.42;21.48;;;;;;;10.28;100.00;98647.13;4986389;28;20521;-61
2022/10/15 03:04:18;;;;;;;43.80;23.83;;;;;;;10.22;100.00;98644.00;4991197;28;20125;-61
2022/10/15 03:07:02;;;;;;;38.25;22.67;;;;;;;10.25;100.00;98636.88;4974118;28;20030;-61
2022/10/15 03:09:48;;;;;;;37.55;22.13;;;;;;;10.24;100.00;98636.03;4973422;28;20077;-61
2022/10/15 03:12:33;;;;;;;37.65;21.95;;;;;;;10.21;100.00;98631.00;4983566;28;20071;-61
2022/10/15 03:15:19;;;;;;;39.92;22.75;;;;;;;10.18;100.00;98620.75;4986816;28;20039;-62
2022/10/15 03:18:05;;;;;;;40.22;22.75;;;;;;;10.11;100.00;98622.97;4983443;28;20469;-60
2022/10/15 03:20:56;;;;;;;41.72;22.05;;;;;;;10.24;100.00;98625.56;4984363;28;20043;-61
2022/10/15 03:23:42;;;;;;;36.70;21.15;;;;;;;10.26;100.00;98628.06;4965425;28;20137;-61
2022/10/15 03:26:35;;;;;;;38.35;21.58;;;;;;;10.21;100.00;98628.41;4985225;28;20035;-60
2022/10/15 03:29:20;;;;;;;33.45;20.65;;;;;;;10.22;100.00;98625.66;4973346;28;20121;-60
2022/10/15 03:32:12;;;;;;;36.42;20.67;;;;;;;10.23;100.00;98618.66;4984711;28;20046;-60
2022/10/15 03:34:57;;;;;;;37.03;20.95;;;;;;;10.14;100.00;98612.28;4988830;28;20146;-61
2022/10/15 03:37:42;;;;;;;38.95;22.45;;;;;;;10.11;100.00;98615.09;4981810;28;20093;-60
2022/10/15 03:40:27;;;;;;;34.60;20.10;;;;;;;10.07;100.00;98609.22;4967672;28;20467;-61
2022/10/15 03:43:16;;;;;;;36.55;21.75;;;;;;;10.06;100.00;98615.44;4981844;28;20034;-60
2022/10/15 03:46:03;;;;;;;34.72;20.20;;;;;;;10.06;100.00;98609.34;4983730;28;20118;-61
2022/10/15 03:48:51;;;;;;;35.75;21.38;;;;;;;10.04;100.00;98606.84;4998051;28;20105;-60
2022/10/15 03:51:37;;;;;;;32.63;20.33;;;;;;;10.03;100.00;98604.31;4998876;28;20121;-61
2022/10/15 03:54:28;;;;;;;32.72;20.60;;;;;;;10.07;100.00;98604.00;4987281;28;20039;-60
2022/10/15 03:57:13;;;;;;;33.85;19.98;;;;;;;10.03;100.00;98604.31;4976433;28;20117;-60
2022/10/15 04:00:06;;;;;;;36.42;20.90;;;;;;;10.05;100.00;98607.69;4975744;28;20418;-61
2022/10/15 04:02:57;;;;;;;34.00;19.17;;;;;;;10.11;100.00;98609.88;4972201;28;20126;-60
2022/10/15 04:05:50;;;;;;;34.75;21.00;;;;;;;10.10;100.00;98616.06;4970120;28;20493;-60
2022/10/15 04:08:35;;;;;;;34.65;19.88;;;;;;;10.13;100.00;98620.22;4998945;28;20096;-60
2022/10/15 04:11:34;;;;;;;35.05;20.58;;;;;;;10.13;100.00;98615.00;4971574;28;20042;-62
2022/10/15 04:14:21;;;;;;;33.10;19.63;;;;;;;10.10;100.00;98613.44;4995872;28;20050;-60
2022/10/15 04:17:07;;;;;;;30.33;18.67;;;;;;;10.12;100.00;98608.09;4972488;28;20062;-60
2022/10/15 04:19:52;;;;;;;29.80;17.63;;;;;;;10.00;100.00;98617.63;4968682;28;20367;-60
2022/10/15 04:22:37;;;;;;;30.30;19.00;;;;;;;10.05;100.00;98613.75;4957441;28;20463;-64
2022/10/15 04:25:23;;;;;;;32.13;19.98;;;;;;;9.97;100.00;98619.50;4987415;28;20038;-60
2022/10/15 04:28:08;;;;;;;29.10;19.20;;;;;;;10.04;100.00;98619.91;4982097;28;20038;-61
2022/10/15 04:30:59;;;;;;;34.45;18.95;;;;;;;10.06;100.00;98622.44;4983410;28;20047;-62
2022/10/15 04:33:47;;;;;;;31.02;18.88;;;;;;;10.06;100.00;98618.03;4988189;28;20034;-60
2022/10/15 04:36:32;;;;;;;32.83;19.85;;;;;;;10.03;100.00;98604.31;4976764;28;20066;-62
2022/10/15 04:39:21;;;;;;;32.25;18.95;;;;;;;10.03;100.00;98610.41;4983247;28;20041;-61
2022/10/15 04:42:06;;;;;;;32.28;19.63;;;;;;;9.98;100.00;98605.50;4956048;28;20383;-61
2022/10/15 04:44:53;;;;;;;33.30;19.55;;;;;;;9.95;100.00;98617.94;4981449;28;20066;-62
2022/10/15 04:47:37;;;;;;;28.98;18.17;;;;;;;10.04;100.00;98619.91;4996141;28;21076;-60
2022/10/15 04:50:27;;;;;;;33.75;19.33;;;;;;;9.97;100.00;98618.69;4982711;28;20035;-63
2022/10/15 04:53:34;;;;;;;32.40;19.85;;;;;;;9.96;100.00;98609.97;4906955;29;20048;-61
2022/10/15 04:56:21;;;;;;;32.42;18.58;;;;;;;10.07;100.00;98616.28;4906432;29;20119;-61
2022/10/15 04:59:07;;;;;;;30.98;19.13;;;;;;;10.12;100.00;98608.09;4900582;29;20536;-62
2022/10/15 05:01:59;;;;;;;29.00;18.77;;;;;;;10.13;100.00;98621.06;4893855;29;20537;-61
2022/10/15 05:04:45;;;;;;;28.13;17.48;;;;;;;10.15;100.00;98621.78;4894858;29;20067;-62
2022/10/15 05:07:29;;;;;;;30.73;18.98;;;;;;;10.18;100.00;98623.38;4901527;29;20053;-61
2022/10/15 05:10:15;;;;;;;27.88;17.70;;;;;;;10.22;100.00;98625.66;4882093;29;20107;-61
2022/10/15 05:13:00;;;;;;;30.65;17.92;;;;;;;10.12;100.00;98624.63;4903213;29;20047;-60
2022/10/15 05:15:49;;;;;;;29.38;17.95;;;;;;;10.26;100.00;98620.22;4897906;29;20047;-60
2022/10/15 05:18:34;;;;;;;30.15;17.75;;;;;;;10.25;100.00;98615.94;4893690;29;20048;-62
2022/10/15 05:21:19;;;;;;;27.20;16.52;;;;;;;10.30;100.00;98622.50;4881339;29;20512;-61
2022/10/15 05:24:08;;;;;;;28.83;17.35;;;;;;;10.25;100.00;98621.16;4903811;29;20191;-61
2022/10/15 05:27:13;;;;;;;26.05;16.83;;;;;;;10.30;100.00;98621.66;4905736;29;20040;-60
2022/10/15 05:29:57;;;;;;;26.17;17.33;;;;;;;10.25;100.00;98622.00;4927954;28;20051;-62
2022/10/15 05:32:51;;;;;;;25.75;16.48;;;;;;;10.41;100.00;98631.41;4980863;28;20031;-63
2022/10/15 05:35:38;;;;;;;28.10;16.95;;;;;;;10.43;100.00;98630.34;4968181;28;20060;-64
2022/10/15 05:38:22;;;;;;;29.08;16.50;;;;;;;10.38;100.00;98632.44;4985418;28;20487;-64
2022/10/15 05:41:08;;;;;;;25.67;16.25;;;;;;;10.52;100.00;98642.00;4975271;28;20062;-63
2022/10/15 05:43:54;;;;;;;27.60;16.60;;;;;;;10.53;100.00;98646.28;4983882;28;20634;-62
2022/10/15 05:46:43;;;;;;;26.58;16.67;;;;;;;10.40;100.00;98648.91;4969882;28;20098;-62
2022/10/15 05:49:32;;;;;;;26.38;16.23;;;;;;;10.42;100.00;98641.78;4974434;28;20081;-63
2022/10/15 05:52:24;;;;;;;24.67;16.00;;;;;;;10.40;100.00;98653.28;5000233;28;20431;-60
2022/10/15 05:55:24;;;;;;;29.95;16.80;;;;;;;10.43;100.00;98653.91;4999136;28;20046;-62
2022/10/15 05:58:08;;;;;;;26.55;16.80;;;;;;;10.49;100.00;98654.47;4974644;28;20031;-61
2022/10/15 06:00:54;;;;;;;20.83;14.02;;;;;;;10.54;100.00;98649.75;4975171;28;20042;-61
2022/10/15 06:03:40;;;;;;;25.73;15.50;;;;;;;10.58;100.00;98652.03;4972029;28;20389;-61
2022/10/15 06:06:25;;;;;;;24.30;15.43;;;;;;;10.55;100.00;98648.78;4972613;28;20434;-61
2022/10/15 06:09:10;;;;;;;24.65;15.18;;;;;;;10.56;100.00;98653.09;4972390;28;20474;-61
2022/10/15 06:11:54;;;;;;;23.40;15.15;;;;;;;10.67;100.00;98662.81;4970314;28;20502;-61
2022/10/15 06:14:42;;;;;;;27.95;15.77;;;;;;;10.49;100.00;98655.31;4983718;28;20046;-61
2022/10/15 06:17:26;;;;;;;23.58;15.20;;;;;;;10.59;100.00;98651.09;4991321;28;20117;-61
2022/10/15 06:20:11;;;;;;;25.55;16.30;;;;;;;10.71;100.00;98651.16;4990284;28;20495;-60
2022/10/15 06:22:58;;;;;;;22.98;14.40;;;;;;;10.79;100.00;98643.59;4983388;28;20125;-62
2022/10/15 06:25:42;;;;;;;27.27;15.32;;;;;;;10.70;100.00;98649.50;4993481;28;20042;-61
2022/10/15 06:28:27;;;;;;;27.20;15.27;;;;;;;10.72;100.00;98656.28;4982646;28;20386;-63
2022/10/15 06:31:12;;;;;;;21.25;14.85;;;;;;;10.64;100.00;98674.34;4989478;28;20397;-62
2022/10/15 06:33:57;;;;;;;23.33;14.13;;;;;;;10.61;100.00;98674.56;4991427;28;20062;-62
2022/10/15 06:36:41;;;;;;;25.00;14.48;;;;;;;10.61;100.00;98679.78;4991847;28;20171;-62
2022/10/15 06:39:26;;;;;;;23.55;14.50;;;;;;;10.63;100.00;98677.91;4993490;28;20109;-61
2022/10/15 06:42:11;;;;;;;25.92;15.52;;;;;;;10.71;100.00;98682.59;4989822;28;20042;-61
2022/10/15 06:44:56;;;;;;;22.50;13.45;;;;;;;10.84;100.00;98682.56;4994195;28;20046;-61
2022/10/15 06:47:40;;;;;;;24.65;13.57;;;;;;;10.84;100.00;98687.81;4993764;28;20042;-62
2022/10/15 06:50:26;;;;;;;24.13;15.82;;;;;;;10.87;100.00;98679.72;4986865;28;20064;-62
2022/10/15 06:53:10;;;;;;;26.17;16.05;;;;;;;10.87;100.00;98684.97;4990076;28;20034;-61
2022/10/15 06:55:59;;;;;;;24.98;15.75;;;;;;;10.87;100.00;98678.91;4981357;28;20409;-61
2022/10/15 06:58:44;;;;;;;23.30;14.18;;;;;;;10.86;100.00;98677.22;4991645;28;20042;-62
2022/10/15 07:01:28;;;;;;;24.70;14.50;;;;;;;10.89;100.00;98672.59;4989435;28;20117;-61
2022/10/15 07:04:13;;;;;;;24.50;15.50;;;;;;;10.86;100.00;98677.22;4992154;28;20034;-61
2022/10/15 07:06:57;;;;;;;21.38;13.55;;;;;;;10.80;100.00;98676.72;4993004;28;20065;-61
2022/10/15 07:09:46;;;;;;;21.38;14.30;;;;;;;11.04;100.00;98678.53;4991438;28;20426;-61
2022/10/15 07:12:31;;;;;;;21.85;13.43;;;;;;;11.05;100.00;98688.06;5002547;28;20058;-61
2022/10/15 07:15:16;;;;;;;22.02;13.65;;;;;;;11.08;100.00;98700.94;4997493;28;20508;-61
2022/10/15 07:18:01;;;;;;;26.20;14.18;;;;;;;11.13;100.00;98710.28;4990928;28;20053;-61
2022/10/15 07:20:45;;;;;;;26.55;15.25;;;;;;;11.17;100.00;98702.09;4993341;28;20046;-62
2022/10/15 07:23:30;;;;;;;22.77;13.88;;;;;;;11.32;100.00;98704.53;4993821;28;20121;-61
2022/10/15 07:26:15;;;;;;;25.70;14.95;;;;;;;11.36;100.00;98695.50;4974776;28;20390;-61
2022/10/15 07:29:01;;;;;;;23.95;14.05;;;;;;;11.29;100.00;98704.78;4990751;28;20038;-64
2022/10/15 07:31:46;;;;;;;23.70;14.05;;;;;;;11.27;100.00;98690.91;5000077;28;20037;-62
2022/10/15 07:34:32;;;;;;;21.35;13.30;;;;;;;11.39;100.00;98684.78;4993468;28;20029;-63
2022/10/15 07:37:17;;;;;;;21.38;14.05;;;;;;;11.55;100.00;98688.91;4992431;28;20034;-61
2022/10/15 07:40:01;;;;;;;23.00;14.45;;;;;;;11.65;100.00;98689.06;4995102;28;20070;-62
2022/10/15 07:42:52;;;;;;;22.23;13.13;;;;;;;11.62;100.00;98695.34;4992129;28;20133;-61
2022/10/15 07:45:39;;;;;;;27.65;14.02;;;;;;;11.72;100.00;98698.13;4988905;28;20113;-61
2022/10/15 07:48:24;;;;;;;22.95;14.38;;;;;;;11.70;100.00;98697.44;4989190;28;20481;-62
2022/10/15 07:51:10;;;;;;;20.15;12.52;;;;;;;11.81;100.00;98684.34;4994075;28;20113;-62
2022/10/15 07:53:54;;;;;;;21.15;13.82;;;;;;;11.74;100.00;98688.38;4988387;28;20134;-61
2022/10/15 07:56:39;;;;;;;19.95;12.77;;;;;;;11.93;100.00;98692.25;4990567;28;20197;-60
2022/10/15 07:59:23;;;;;;;20.40;13.15;;;;;;;11.99;100.00;98690.94;4992544;28;20034;-62
2022/10/15 08:02:17;;;;;;;21.35;12.48;;;;;;;12.20;100.00;98699.00;5005207;28;20482;-62
2022/10/15 08:05:02;;;;;;;22.25;12.98;;;;;;;12.17;100.00;98692.22;4994816;28;20046;-60
2022/10/15 08:07:47;;;;;;;20.65;12.95;;;;;;;12.35;100.00;98699.63;4991027;28;20399;-62
2022/10/15 08:10:31;;;;;;;22.00;13.20;;;;;;;12.64;100.00;98711.44;4990621;28;20038;-61
2022/10/15 08:13:16;;;;;;;20.48;12.32;;;;;;;13.04;100.00;98712.72;4987188;28;20030;-63
2022/10/15 08:16:03;;;;;;;23.05;13.10;;;;;;;13.02;99.38;98723.34;4994035;28;20045;-62
2022/10/15 08:18:48;;;;;;;20.30;13.27;;;;;;;12.93;99.85;98721.44;4989601;28;20428;-60
2022/10/15 08:21:33;;;;;;;22.30;12.10;;;;;;;12.98;100.00;98713.19;4980789;28;20043;-62
2022/10/15 08:24:18;;;;;;;20.65;12.55;;;;;;;12.99;99.92;98718.31;4989465;28;20032;-61
2022/10/15 08:27:03;;;;;;;20.85;11.85;;;;;;;13.08;98.44;98724.66;4990287;28;20042;-62
2022/10/15 08:29:48;;;;;;;19.55;12.10;;;;;;;12.73;100.00;98720.41;4975183;28;20089;-62
2022/10/15 08:32:32;;;;;;;22.52;13.95;;;;;;;12.51;100.00;98712.41;4995449;28;20056;-63
2022/10/15 08:35:16;;;;;;;21.75;13.18;;;;;;;12.65;100.00;98716.56;4989545;28;20084;-60
2022/10/15 08:38:01;;;;;;;24.90;13.32;;;;;;;12.64;100.00;98729.84;4994018;28;20050;-61
2022/10/15 08:40:54;;;;;;;21.17;12.70;;;;;;;12.55;100.00;98731.41;4988309;28;20112;-62
2022/10/15 08:43:42;;;;;;;20.15;11.93;;;;;;;12.64;100.00;98730.69;4977772;28;20371;-61
2022/10/15 08:46:41;;;;;;;18.77;12.60;;;;;;;12.91;100.00;98729.47;4992118;28;20042;-61
2022/10/15 08:49:34;;;;;;;19.60;11.50;;;;;;;12.80;100.00;98732.94;4978306;28;20044;-62
2022/10/15 08:52:39;;;;;;;20.17;12.32;;;;;;;12.82;100.00;98735.44;4992150;28;20088;-62
2022/10/15 08:55:23;;;;;;;22.95;13.05;;;;;;;12.76;100.00;98738.56;4998600;28;20373;-62
2022/10/15 08:58:24;;;;;;;22.27;13.57;;;;;;;12.83;100.00;98739.75;4994290;28;20034;-62
2022/10/15 09:01:25;;;;;;;21.17;12.90;;;;;;;12.82;100.00;98753.84;4997034;28;20061;-61
2022/10/15 09:04:36;;;;;;;18.45;13.02;;;;;;;12.89;100.00;98746.31;5000423;28;20164;-62
2022/10/15 09:07:41;;;;;;;21.38;12.27;;;;;;;12.87;100.00;98749.06;4981746;28;20101;-62
2022/10/15 09:10:45;;;;;;;19.63;11.65;;;;;;;12.98;100.00;98752.63;4987526;28;20040;-61
2022/10/15 09:13:39;;;;;;;22.20;12.23;;;;;;;13.11;100.00;98750.72;4975603;28;22247;-64
2022/10/15 09:16:28;;;;;;;19.20;12.63;;;;;;;13.25;98.04;98754.03;4993508;28;20042;-60
2022/10/15 09:19:17;;;;;;;20.52;12.75;;;;;;;13.19;98.67;98752.72;4991936;28;20037;-61
2022/10/15 09:22:01;;;;;;;18.67;11.80;;;;;;;13.17;99.74;98739.69;4992797;28;20117;-60
2022/10/15 09:24:46;;;;;;;19.45;12.45;;;;;;;13.48;98.13;98754.81;4995079;28;20093;-63
2022/10/15 09:27:36;;;;;;;17.63;11.95;;;;;;;13.65;98.46;98757.91;4991965;28;20034;-61
2022/10/15 09:30:44;;;;;;;18.85;11.43;;;;;;;13.60;98.81;98754.78;4998821;28;20420;-61
2022/10/15 09:33:45;;;;;;;17.33;10.65;;;;;;;13.62;99.57;98753.72;5010834;28;20038;-61
2022/10/15 09:36:38;;;;;;;15.65;10.98;;;;;;;13.68;99.79;98747.13;4992624;28;20377;-61
2022/10/15 09:39:29;;;;;;;16.23;10.90;;;;;;;13.49;98.09;98747.75;4994453;28;20042;-61
2022/10/15 09:42:35;;;;;;;18.52;11.52;;;;;;;13.25;99.08;98752.22;4994864;28;20090;-61
2022/10/15 09:45:26;;;;;;;17.90;11.80;;;;;;;13.17;100.00;98762.56;4928012;29;20840;-62
2022/10/15 09:48:17;;;;;;;19.27;11.23;;;;;;;12.99;100.00;98767.47;4923459;29;20068;-62
2022/10/15 09:51:09;;;;;;;18.33;11.32;;;;;;;13.22;100.00;98765.63;4922315;29;20134;-62
2022/10/15 09:54:12;;;;;;;17.27;11.68;;;;;;;12.92;100.00;98761.84;4929391;29;20044;-63
2022/10/15 09:56:58;;;;;;;20.88;12.55;;;;;;;12.86;100.00;98764.97;4929516;29;20106;-63
2022/10/15 09:59:54;;;;;;;21.08;11.38;;;;;;;12.55;100.00;98755.88;4928329;29;20052;-62
2022/10/15 10:02:38;;;;;;;20.52;12.45;;;;;;;12.77;100.00;98763.88;4925327;29;20126;-62
2022/10/15 10:05:31;;;;;;;17.38;12.00;;;;;;;12.75;100.00;98768.41;4925275;29;20515;-61
2022/10/15 10:08:19;;;;;;;19.20;12.60;;;;;;;12.71;100.00;98762.59;4928413;29;20481;-62
2022/10/15 10:11:09;;;;;;;19.30;12.65;;;;;;;12.72;100.00;98758.97;4930242;29;20039;-61
2022/10/15 10:13:57;;;;;;;16.17;11.60;;;;;;;12.88;100.00;98757.78;4939032;28;20144;-61
2022/10/15 10:17:22;;;;;;;19.52;11.80;;;;;;;12.79;100.00;98756.72;4965021;28;20105;-61
2022/10/15 10:20:16;;;;;;;18.98;12.07;;;;;;;12.68;100.00;98755.75;4990287;28;20418;-61
2022/10/15 10:23:19;;;;;;;20.20;11.75;;;;;;;12.69;100.00;98753.97;4994011;28;20082;-63
2022/10/15 10:26:08;;;;;;;20.92;12.40;;;;;;;12.61;100.00;98757.19;4996648;28;20422;-63
2022/10/15 10:28:55;;;;;;;18.38;11.85;;;;;;;12.54;100.00;98751.56;5007426;28;20046;-62
2022/10/15 10:31:42;;;;;;;18.13;11.60;;;;;;;12.73;100.00;98752.75;4992877;28;20046;-63
2022/10/15 10:34:31;;;;;;;20.00;11.63;;;;;;;12.75;100.00;98755.25;4991278;28;20463;-61
2022/10/15 10:37:16;;;;;;;16.88;11.23;;;;;;;12.77;100.00;98750.72;4980323;28;20136;-62
2022/10/15 10:40:21;;;;;;;18.92;11.00;;;;;;;12.96;100.00;98744.88;4991010;28;20121;-62
2022/10/15 10:43:23;;;;;;;22.65;12.57;;;;;;;12.93;100.00;98742.47;4996163;28;20058;-63
2022/10/15 10:46:14;;;;;;;21.58;12.48;;;;;;;12.81;100.00;98745.13;4997559;28;20041;-62
2022/10/15 10:49:04;;;;;;;18.48;11.65;;;;;;;12.92;100.00;98752.19;4992261;28;20050;-62
2022/10/15 10:51:49;;;;;;;21.20;11.43;;;;;;;13.07;100.00;98733.50;4988674;28;20117;-61
2022/10/15 10:54:34;;;;;;;21.90;10.93;;;;;;;13.11;100.00;98748.06;4989846;28;20026;-61
2022/10/15 10:57:28;;;;;;;16.67;11.07;;;;;;;13.08;100.00;98743.06;4990904;28;20034;-63
2022/10/15 11:00:44;;;;;;;17.42;11.23;;;;;;;13.28;99.98;98749.38;4991844;28;20104;-63
2022/10/15 11:03:44;;;;;;;16.00;9.90;;;;;;;13.34;99.11;98742.78;4991958;28;20401;-61
2022/10/15 11:06:49;;;;;;;16.15;10.20;;;;;;;13.24;99.21;98744.47;4989440;28;20038;-61
2022/10/15 11:10:31;;;;;;;17.08;10.38;;;;;;;13.29;99.33;98751.03;5002844;28;20442;-61
2022/10/15 11:13:40;;;;;;;16.17;10.73;;;;;;;13.38;98.82;98740.75;4933914;29;20047;-62
2022/10/15 11:16:43;;;;;;;;;;;;;;;13.33;99.12;98735.84;4946274;29;20039;-61
2022/10/15 11:19:44;;;;;;;19.17;10.25;;;;;;;13.25;99.83;98738.25;4947003;29;19918;-62
2022/10/15 11:23:17;;;;;;;15.10;10.10;;;;;;;13.38;99.74;98749.44;4946819;29;20098;-62
2022/10/15 11:26:20;;;;;;;17.00;9.93;;;;;;;13.49;99.16;98745.13;4888830;29;20049;-63
2022/10/15 11:29:37;;;;;;;18.20;10.50;;;;;;;13.43;99.17;98747.28;4889813;29;20068;-62
2022/10/15 11:32:43;;;;;;;14.70;9.98;;;;;;;13.43;99.18;98751.72;4888443;29;20065;-62
2022/10/15 11:35:50;;;;;;;16.02;10.43;;;;;;;13.37;99.41;98747.78;4892237;29;20503;-62
2022/10/15 11:38:52;;;;;;;15.00;9.57;;;;;;;13.38;99.46;98740.75;4874653;29;20217;-62
2022/10/15 11:42:03;;;;;;;14.88;10.00;;;;;;;13.34;100.00;98739.28;4891070;29;20399;-62
2022/10/15 11:45:17;;;;;;;15.40;10.30;;;;;;;13.20;100.00;98743.03;4888728;29;20520;-62
2022/10/15 11:48:44;;;;;;;16.75;9.82;;;;;;;13.17;100.00;98738.88;4908243;29;20091;-62
2022/10/15 11:51:32;;;;;;;15.32;10.43;;;;;;;13.17;100.00;98731.81;4908252;29;20178;-62
2022/10/15 11:54:35;;;;;;;17.48;10.65;;;;;;;13.27;100.00;98731.06;4906687;29;20059;-62
2022/10/15 11:57:25;;;;;;;15.20;9.43;;;;;;;13.22;100.00;98713.00;4907780;29;20587;-63
2022/10/15 12:00:36;;;;;;;16.23;10.02;;;;;;;13.35;99.97;98717.31;4905037;29;20051;-62
2022/10/15 12:03:32;;;;;;;17.92;10.52;;;;;;;13.41;99.51;98716.81;4984861;28;20070;-62
2022/10/15 12:06:21;;;;;;;17.15;10.68;;;;;;;13.47;100.00;98718.94;4985227;28;20038;-62
2022/10/15 12:09:08;;;;;;;18.50;10.20;;;;;;;13.43;99.61;98726.22;4985812;28;20477;-62
2022/10/15 12:12:31;;;;;;;15.60;9.30;;;;;;;13.41;99.84;98738.69;4969150;28;20499;-63
2022/10/15 12:15:24;;;;;;;15.32;10.00;;;;;;;13.45;99.93;98730.56;4966071;28;20043;-62
2022/10/15 12:18:22;;;;;;;16.58;10.27;;;;;;;13.50;100.00;98733.63;4970949;28;20089;-61
2022/10/15 12:21:31;;;;;;;19.40;10.10;;;;;;;13.62;99.61;98742.34;4971998;28;20049;-63
2022/10/15 12:24:36;;;;;;;14.43;10.00;;;;;;;13.49;100.00;98737.22;4975348;28;20052;-62
2022/10/15 12:27:24;;;;;;;16.05;8.90;;;;;;;13.40;100.00;98738.78;4977971;28;20042;-63
2022/10/15 12:30:10;;;;;;;16.08;9.75;;;;;;;13.32;100.00;98739.41;4972340;28;20434;-63
2022/10/15 12:32:55;;;;;;;16.55;10.73;;;;;;;13.11;100.00;98734.09;4984820;28;20073;-63
2022/10/15 12:35:40;;;;;;;18.30;12.10;;;;;;;13.06;100.00;98739.72;4967264;28;20038;-61
2022/10/15 12:38:32;;;;;;;16.95;10.73;;;;;;;12.93;100.00;98742.47;4972200;28;20090;-61
2022/10/15 12:41:16;;;;;;;21.25;12.85;;;;;;;12.71;100.00;98744.19;4971196;28;20070;-61
2022/10/15 12:44:19;;;;;;;19.55;12.88;;;;;;;12.49;100.00;98745.00;4972195;28;20471;-61
2022/10/15 12:47:04;;;;;;;17.70;11.57;;;;;;;12.44;100.00;98748.81;4969763;28;20078;-63
2022/10/15 12:50:15;;;;;;;19.90;13.35;;;;;;;12.25;100.00;98753.78;4950128;28;20098;-61
2022/10/15 12:53:02;;;;;;;19.30;12.77;;;;;;;12.29;100.00;98745.56;4990732;28;20038;-62
2022/10/15 12:56:16;;;;;;;20.60;13.48;;;;;;;12.16;100.00;98743.03;4990898;28;20077;-63
2022/10/15 12:59:00;;;;;;;21.95;13.15;;;;;;;12.04;100.00;98741.31;4989314;28;20039;-61